Time;durP1;ratioP1;P1;durP2;ratioP2;P2;SDS_P1;SDS_P2;PMS_P1;PMS_P2;Temp;Humidity;BMP_temperature;BMP_pressure;BME280_temperature;BME280_humidity;BME280_pressure;Samples;Min_cycle;Max_cycle;Signal;HPM_P1;HPM_P2
2023/06/20 00:01:41;;;;;;;9.27;7.82;;;19.50;99.90;;;;;;5027831;28;20140;-88
2023/06/20 00:04:07;;;;;;;9.10;8.20;;;19.50;99.90;;;;;;4997006;28;20113;-87
2023/06/20 00:06:33;;;;;;;9.27;8.38;;;19.50;99.90;;;;;;5011118;28;20354;-87
2023/06/20 00:08:58;;;;;;;9.15;8.20;;;19.50;99.90;;;;;;4971019;28;20060;-87
2023/06/20 00:11:24;;;;;;;9.93;8.07;;;19.40;99.90;;;;;;4990066;28;20030;-88
2023/06/20 00:13:50;;;;;;;9.20;8.30;;;19.40;99.90;;;;;;4968209;28;20046;-88
2023/06/20 00:16:20;;;;;;;10.48;8.85;;;19.30;99.90;;;;;;5005277;28;20065;-86
2023/06/20 00:18:53;;;;;;;9.95;8.98;;;19.30;99.90;;;;;;4996027;28;20025;-87
2023/06/20 00:21:21;;;;;;;10.85;8.65;;;19.20;99.90;;;;;;5010623;28;20021;-87
2023/06/20 00:23:47;;;;;;;9.25;8.38;;;19.20;99.90;;;;;;4987998;28;20108;-87
2023/06/20 00:26:13;;;;;;;8.90;8.00;;;19.10;99.90;;;;;;4983319;28;20462;-87
2023/06/20 00:28:57;;;;;;;10.50;8.65;;;19.10;99.90;;;;;;4994761;28;20069;-87
2023/06/20 00:31:24;;;;;;;8.88;7.97;;;19.10;99.90;;;;;;4960006;28;20401;-88
2023/06/20 00:33:49;;;;;;;9.82;8.82;;;19.10;99.90;;;;;;4964975;28;20028;-87
2023/06/20 00:36:15;;;;;;;10.35;8.30;;;19.10;99.90;;;;;;4996290;28;20032;-87
2023/06/20 00:38:48;;;;;;;10.82;8.18;;;19.10;99.90;;;;;;4992787;28;20026;-88
2023/06/20 00:41:16;;;;;;;8.75;7.45;;;19.10;99.90;;;;;;4987784;28;20057;-87
2023/06/20 00:43:42;;;;;;;7.72;6.97;;;19.10;99.90;;;;;;4993231;28;20041;-88
2023/06/20 00:46:08;;;;;;;9.00;8.10;;;19.10;99.90;;;;;;4961925;28;20120;-87
2023/06/20 00:48:34;;;;;;;8.70;7.90;;;19.10;99.90;;;;;;4995253;28;20123;-87
2023/06/20 00:50:59;;;;;;;8.63;7.82;;;19.10;99.90;;;;;;5011886;28;20203;-88
2023/06/20 00:53:25;;;;;;;8.73;7.82;;;19.10;99.90;;;;;;4966478;28;20404;-86
2023/06/20 00:55:51;;;;;;;9.57;7.88;;;19.00;99.90;;;;;;4986081;28;20099;-88
2023/06/20 00:58:19;;;;;;;8.40;7.68;;;19.00;99.90;;;;;;4972621;28;20636;-87
2023/06/20 01:00:44;;;;;;;9.02;7.95;;;19.00;99.90;;;;;;4951527;28;20095;-89
2023/06/20 01:03:12;;;;;;;8.75;7.50;;;18.90;99.90;;;;;;4994532;28;20033;-87
2023/06/20 01:05:40;;;;;;;9.45;6.60;;;18.90;99.90;;;;;;4990814;28;20482;-88
2023/06/20 01:08:28;;;;;;;8.02;7.22;;;18.90;99.90;;;;;;4995172;28;20149;-88
2023/06/20 01:11:03;;;;;;;7.65;6.95;;;18.90;99.90;;;;;;5005341;28;20029;-87
2023/06/20 01:13:45;;;;;;;8.55;7.40;;;18.90;99.90;;;;;;4987782;28;20113;-88
2023/06/20 01:16:42;;;;;;;8.02;7.22;;;18.90;99.90;;;;;;4990913;28;20030;-88
2023/06/20 01:19:19;;;;;;;7.38;6.68;;;18.80;99.90;;;;;;4996840;28;20038;-87
2023/06/20 01:21:53;;;;;;;8.27;7.55;;;18.90;99.90;;;;;;5010220;28;20034;-87
2023/06/20 01:24:25;;;;;;;9.38;7.38;;;18.80;99.90;;;;;;5002934;28;20116;-88
2023/06/20 01:26:56;;;;;;;9.77;7.75;;;18.90;99.90;;;;;;4988359;28;20064;-87
2023/06/20 01:29:36;;;;;;;8.10;7.30;;;18.80;99.90;;;;;;4986253;28;20101;-88
2023/06/20 01:32:09;;;;;;;8.57;7.68;;;18.80;99.90;;;;;;4996060;28;20092;-88
2023/06/20 01:34:39;;;;;;;7.93;7.13;;;18.80;99.90;;;;;;5000276;28;20068;-88
2023/06/20 01:37:07;;;;;;;9.23;8.32;;;18.90;99.90;;;;;;4979520;28;20521;-89
2023/06/20 01:39:44;;;;;;;8.80;7.82;;;18.90;99.90;;;;;;4972722;28;20066;-87
2023/06/20 01:42:15;;;;;;;8.82;7.93;;;18.90;99.90;;;;;;4998761;28;20030;-87
2023/06/20 01:44:43;;;;;;;10.05;9.05;;;18.90;99.90;;;;;;4985424;28;20037;-88
2023/06/20 01:47:11;;;;;;;10.05;8.63;;;18.80;99.90;;;;;;4998918;28;20060;-88
2023/06/20 01:49:39;;;;;;;9.13;8.20;;;18.70;99.90;;;;;;4989404;28;20034;-88
2023/06/20 01:52:06;;;;;;;9.10;8.10;;;18.70;99.90;;;;;;5013020;28;20123;-87
2023/06/20 01:54:34;;;;;;;9.23;8.32;;;18.70;99.90;;;;;;4990340;28;20025;-87
2023/06/20 01:57:03;;;;;;;9.27;8.18;;;18.60;99.90;;;;;;4983533;28;20037;-86
2023/06/20 01:59:30;;;;;;;9.05;8.23;;;18.60;99.90;;;;;;4989452;28;20030;-87
2023/06/20 02:01:59;;;;;;;8.38;7.57;;;18.60;99.90;;;;;;4989854;28;20295;-88
2023/06/20 02:04:27;;;;;;;10.27;8.38;;;18.60;99.90;;;;;;4967411;28;20040;-88
2023/06/20 02:06:55;;;;;;;9.13;8.00;;;18.60;99.90;;;;;;4973691;28;20037;-86
2023/06/20 02:09:22;;;;;;;9.75;8.50;;;18.50;99.90;;;;;;4995420;28;20041;-87
2023/06/20 02:11:49;;;;;;;8.98;8.07;;;18.50;99.90;;;;;;4995382;28;20155;-87
2023/06/20 02:14:15;;;;;;;9.25;8.38;;;18.50;99.90;;;;;;5007780;28;20133;-88
2023/06/20 02:16:42;;;;;;;9.45;8.55;;;18.50;99.90;;;;;;5001609;28;20485;-86
2023/06/20 02:19:09;;;;;;;10.02;8.73;;;18.40;99.90;;;;;;5007704;28;20029;-86
2023/06/20 02:21:40;;;;;;;9.15;8.23;;;18.40;99.90;;;;;;4978689;28;20511;-87
2023/06/20 02:24:11;;;;;;;9.35;7.88;;;18.40;99.90;;;;;;5007312;28;20053;-86
2023/06/20 02:26:42;;;;;;;8.57;7.35;;;18.40;99.90;;;;;;4970206;28;20168;-87
2023/06/20 02:29:10;;;;;;;8.65;7.85;;;18.40;99.90;;;;;;4990764;28;20034;-88
2023/06/20 02:31:40;;;;;;;8.30;7.50;;;18.30;99.90;;;;;;5008509;28;20037;-88
2023/06/20 02:34:11;;;;;;;8.32;7.32;;;18.30;99.90;;;;;;5012437;28;20682;-88
2023/06/20 02:36:38;;;;;;;8.98;6.90;;;18.30;99.90;;;;;;5013088;28;20047;-87
2023/06/20 02:39:06;;;;;;;8.10;7.30;;;18.20;99.90;;;;;;4988242;28;20036;-87
2023/06/20 02:41:32;;;;;;;7.85;7.15;;;18.20;99.90;;;;;;4983089;28;20041;-88
2023/06/20 02:43:58;;;;;;;8.80;7.90;;;18.20;99.90;;;;;;4996471;28;20567;-87
2023/06/20 02:46:44;;;;;;;8.73;7.80;;;18.10;99.90;;;;;;4994306;28;20030;-87
2023/06/20 02:49:37;;;;;;;9.30;8.35;;;18.10;99.90;;;;;;5006982;28;20026;-88
2023/06/20 02:52:26;;;;;;;9.52;8.52;;;18.10;99.90;;;;;;5013837;28;20402;-87
2023/06/20 02:54:51;;;;;;;9.63;8.70;;;18.00;99.90;;;;;;5015274;28;20117;-87
2023/06/20 02:57:20;;;;;;;9.48;8.52;;;17.90;99.90;;;;;;5001155;28;20049;-86
2023/06/20 02:59:54;;;;;;;9.60;8.45;;;17.90;99.90;;;;;;5009338;28;20092;-87
2023/06/20 03:02:22;;;;;;;9.90;8.90;;;17.90;99.90;;;;;;5010787;28;20022;-86
2023/06/20 03:04:56;;;;;;;9.75;8.85;;;17.90;99.90;;;;;;5000754;28;20572;-87
2023/06/20 03:07:33;;;;;;;9.18;8.27;;;17.90;99.90;;;;;;4995695;28;20029;-88
2023/06/20 03:10:03;;;;;;;9.73;8.73;;;17.90;99.90;;;;;;5004710;28;20030;-88
2023/06/20 03:12:30;;;;;;;9.07;8.18;;;17.90;99.90;;;;;;4998507;28;20104;-88
2023/06/20 03:14:56;;;;;;;10.73;8.45;;;17.90;99.90;;;;;;5014338;28;20059;-88
2023/06/20 03:17:22;;;;;;;9.85;8.90;;;17.90;99.90;;;;;;4986056;28;20138;-87
2023/06/20 03:19:49;;;;;;;9.30;8.38;;;17.90;99.90;;;;;;4986423;28;20032;-87
2023/06/20 03:22:17;;;;;;;9.77;8.77;;;17.90;99.90;;;;;;4986786;28;20025;-86
2023/06/20 03:24:47;;;;;;;9.35;8.45;;;17.90;99.90;;;;;;4969741;28;20026;-86
2023/06/20 03:27:14;;;;;;;10.85;8.50;;;17.90;99.90;;;;;;4986227;28;20045;-86
2023/06/20 03:29:40;;;;;;;9.95;8.98;;;17.90;99.90;;;;;;4977150;28;20026;-88
2023/06/20 03:32:06;;;;;;;9.50;8.60;;;17.90;99.90;;;;;;4984123;28;20033;-88
2023/06/20 03:34:32;;;;;;;9.40;8.40;;;18.00;99.90;;;;;;4995392;28;20053;-87
2023/06/20 03:36:58;;;;;;;9.38;8.35;;;18.00;99.90;;;;;;5011164;28;20045;-87
2023/06/20 03:39:24;;;;;;;9.48;8.57;;;18.00;99.90;;;;;;4989768;28;20092;-86
2023/06/20 03:41:50;;;;;;;9.85;8.85;;;18.00;99.90;;;;;;4957978;28;20029;-87
2023/06/20 03:44:18;;;;;;;9.70;8.70;;;18.10;99.90;;;;;;4995352;28;20167;-86
2023/06/20 03:46:44;;;;;;;8.98;8.07;;;18.20;99.90;;;;;;4966669;28;20740;-88
2023/06/20 03:49:09;;;;;;;9.05;7.65;;;18.30;99.90;;;;;;4997037;28;20045;-87
2023/06/20 03:51:35;;;;;;;9.82;6.65;;;18.30;99.90;;;;;;4963091;28;20033;-87
2023/06/20 03:54:04;;;;;;;7.47;6.32;;;18.40;99.90;;;;;;4987595;28;20034;-87
2023/06/20 03:56:29;;;;;;;8.45;6.93;;;18.40;99.90;;;;;;4986183;28;20048;-87
2023/06/20 03:58:56;;;;;;;8.30;7.45;;;18.40;99.90;;;;;;5002190;28;20449;-87
2023/06/20 04:01:24;;;;;;;8.75;7.90;;;18.40;99.90;;;;;;4994031;28;20033;-86
2023/06/20 04:03:54;;;;;;;9.05;8.15;;;18.30;99.90;;;;;;4995575;28;20041;-88
2023/06/20 04:06:29;;;;;;;11.00;8.23;;;18.30;99.90;;;;;;4982551;28;20035;-86
2023/06/20 04:08:58;;;;;;;9.27;7.35;;;18.30;99.90;;;;;;4995675;28;20018;-87
2023/06/20 04:11:24;;;;;;;8.13;7.35;;;18.30;99.90;;;;;;5000759;28;20053;-86
2023/06/20 04:13:50;;;;;;;7.90;7.10;;;18.30;99.90;;;;;;4988974;28;20112;-87
2023/06/20 04:16:16;;;;;;;8.45;7.32;;;18.40;99.90;;;;;;5003729;28;20478;-88
2023/06/20 04:18:42;;;;;;;9.68;7.35;;;18.40;99.90;;;;;;4998656;28;20058;-91
2023/06/20 04:21:08;;;;;;;8.60;7.53;;;18.40;99.90;;;;;;4991084;28;20065;-89
2023/06/20 04:23:34;;;;;;;9.80;8.27;;;18.30;99.90;;;;;;4987145;28;20073;-88
2023/06/20 04:26:01;;;;;;;10.18;9.05;;;18.30;99.90;;;;;;5007255;28;20029;-88
2023/06/20 04:28:27;;;;;;;9.85;8.85;;;18.30;99.90;;;;;;4969667;28;20037;-89
2023/06/20 04:31:00;;;;;;;10.80;9.52;;;18.20;99.90;;;;;;4977384;28;20045;-88
2023/06/20 04:33:25;;;;;;;9.48;8.57;;;18.10;99.90;;;;;;4988988;28;20848;-88
2023/06/20 04:35:57;;;;;;;10.50;8.60;;;18.20;99.90;;;;;;5004814;28;20033;-87
2023/06/20 04:38:26;;;;;;;9.50;8.55;;;18.10;99.90;;;;;;4985185;28;20579;-88
2023/06/20 04:40:52;;;;;;;8.88;8.05;;;18.10;99.90;;;;;;4987116;28;20022;-88
2023/06/20 04:43:18;;;;;;;8.50;7.68;;;18.10;99.90;;;;;;4963390;28;20582;-88
2023/06/20 04:45:44;;;;;;;8.98;7.88;;;18.20;99.90;;;;;;5006101;28;20502;-88
2023/06/20 04:48:10;;;;;;;10.30;7.95;;;18.30;99.90;;;;;;4992533;28;20045;-89
2023/06/20 04:50:36;;;;;;;8.65;7.70;;;18.40;99.90;;;;;;4973899;28;20029;-89
2023/06/20 04:53:03;;;;;;;9.90;8.82;;;18.40;99.90;;;;;;4996220;28;20033;-88
2023/06/20 04:55:29;;;;;;;10.40;9.40;;;18.50;99.90;;;;;;4993357;28;20091;-88
2023/06/20 04:57:56;;;;;;;9.43;8.52;;;18.60;99.90;;;;;;4978423;28;20022;-89
2023/06/20 05:00:22;;;;;;;9.23;8.32;;;18.60;99.90;;;;;;4992997;28;20120;-89
2023/06/20 05:02:48;;;;;;;11.05;9.95;;;18.60;99.90;;;;;;5008691;28;20037;-88
2023/06/20 05:05:14;;;;;;;9.98;8.93;;;18.70;99.90;;;;;;4979974;28;20033;-88
2023/06/20 05:07:41;;;;;;;12.07;9.07;;;18.80;99.90;;;;;;4992307;28;20072;-89
2023/06/20 05:10:08;;;;;;;9.55;8.40;;;18.80;99.90;;;;;;4982770;28;20025;-88
2023/06/20 05:12:34;;;;;;;9.27;8.38;;;18.80;99.90;;;;;;4989119;28;20383;-88
2023/06/20 05:15:00;;;;;;;8.05;7.25;;;18.80;99.90;;;;;;4994937;28;20029;-89
2023/06/20 05:17:26;;;;;;;8.15;7.10;;;18.80;99.90;;;;;;4990258;28;20029;-89
2023/06/20 05:19:52;;;;;;;8.23;7.43;;;18.80;99.90;;;;;;4991810;28;20095;-89
2023/06/20 05:22:17;;;;;;;9.82;8.75;;;18.80;99.90;;;;;;4991243;28;20053;-88
2023/06/20 05:24:43;;;;;;;9.18;8.30;;;18.90;99.90;;;;;;4992799;28;20022;-89
2023/06/20 05:27:09;;;;;;;10.45;8.68;;;18.80;99.90;;;;;;4991380;28;20401;-90
2023/06/20 05:29:35;;;;;;;10.27;9.18;;;18.70;99.90;;;;;;4998213;28;20025;-89
2023/06/20 05:32:01;;;;;;;10.07;8.30;;;18.60;99.90;;;;;;4974651;28;20037;-89
2023/06/20 05:34:27;;;;;;;11.65;10.43;;;18.60;99.90;;;;;;4981199;28;20092;-89
2023/06/20 05:36:53;;;;;;;11.23;9.70;;;18.60;99.90;;;;;;4975981;28;20034;-88
2023/06/20 05:39:18;;;;;;;10.02;9.02;;;18.60;99.90;;;;;;4984601;28;20037;-90
2023/06/20 05:41:44;;;;;;;10.60;9.18;;;18.60;99.90;;;;;;4979850;28;20069;-90
2023/06/20 05:44:10;;;;;;;10.90;9.15;;;18.60;99.90;;;;;;4977102;28;20421;-89
2023/06/20 05:46:36;;;;;;;10.40;9.30;;;18.60;99.90;;;;;;4989419;28;20065;-88
2023/06/20 05:49:03;;;;;;;10.52;9.40;;;18.60;99.90;;;;;;4989339;28;20057;-88
2023/06/20 05:51:29;;;;;;;9.18;8.27;;;18.70;99.90;;;;;;4988312;28;20508;-88
2023/06/20 05:53:58;;;;;;;10.68;9.25;;;18.70;99.90;;;;;;4987917;28;20022;-88
2023/06/20 05:56:24;;;;;;;13.40;10.98;;;18.80;99.90;;;;;;5003494;28;20717;-88
2023/06/20 05:58:50;;;;;;;13.75;12.38;;;19.00;99.90;;;;;;4987788;28;20684;-88
2023/06/20 06:01:16;;;;;;;10.32;9.32;;;19.20;99.90;;;;;;4959402;28;20105;-88
2023/06/20 06:03:42;;;;;;;12.30;9.82;;;19.30;99.90;;;;;;4994042;28;20421;-89
2023/06/20 06:06:11;;;;;;;11.05;9.95;;;19.50;99.90;;;;;;4994736;28;20029;-87
2023/06/20 06:08:37;;;;;;;12.25;10.82;;;19.80;99.90;;;;;;4985021;28;20072;-88
2023/06/20 06:11:02;;;;;;;11.88;10.68;;;19.90;99.90;;;;;;4989466;28;20062;-88
2023/06/20 06:13:28;;;;;;;11.23;10.02;;;20.00;99.90;;;;;;4967979;28;20029;-87
2023/06/20 06:15:54;;;;;;;13.63;10.95;;;20.20;99.90;;;;;;5008565;28;20032;-88
2023/06/20 06:18:20;;;;;;;12.10;10.90;;;20.30;99.90;;;;;;4997975;28;20760;-86
2023/06/20 06:20:46;;;;;;;13.85;11.93;;;20.30;99.90;;;;;;4984335;28;20495;-88
2023/06/20 06:23:12;;;;;;;12.07;10.77;;;20.30;99.90;;;;;;4976635;28;20049;-87
2023/06/20 06:25:38;;;;;;;11.45;10.32;;;20.50;99.90;;;;;;5007672;28;20642;-88
2023/06/20 06:28:04;;;;;;;11.38;10.18;;;20.60;99.90;;;;;;4961663;28;20041;-87
2023/06/20 06:30:32;;;;;;;12.10;10.13;;;20.70;99.90;;;;;;4989641;28;20033;-88
2023/06/20 06:33:01;;;;;;;11.07;8.75;;;20.70;99.90;;;;;;4966893;28;20029;-87
2023/06/20 06:35:30;;;;;;;12.35;8.75;;;20.80;99.90;;;;;;4986369;28;20572;-87
2023/06/20 06:37:57;;;;;;;9.23;8.43;;;20.90;99.90;;;;;;4995510;28;20039;-87
2023/06/20 06:40:23;;;;;;;8.77;7.88;;;21.00;99.90;;;;;;4997437;28;20148;-87
2023/06/20 06:42:49;;;;;;;9.88;8.82;;;21.10;99.90;;;;;;4999427;28;20411;-87
2023/06/20 06:45:15;;;;;;;12.38;9.85;;;21.20;99.90;;;;;;4994342;28;20052;-87
2023/06/20 06:47:41;;;;;;;10.13;9.13;;;21.20;99.90;;;;;;4986369;28;20113;-87
2023/06/20 06:50:07;;;;;;;10.95;9.95;;;21.30;99.90;;;;;;5005149;28;20052;-88
2023/06/20 06:52:34;;;;;;;11.60;10.20;;;21.40;99.90;;;;;;5010480;28;20033;-87
2023/06/20 06:55:00;;;;;;;9.85;8.95;;;21.60;99.90;;;;;;4997859;28;20061;-88
2023/06/20 06:57:26;;;;;;;12.88;9.88;;;21.90;99.90;;;;;;5013537;28;20068;-87
2023/06/20 06:59:52;;;;;;;11.80;10.57;;;22.00;99.90;;;;;;5008472;28;20062;-86
2023/06/20 07:02:18;;;;;;;12.50;11.30;;;22.00;99.90;;;;;;5017107;28;20034;-88
2023/06/20 07:04:44;;;;;;;12.02;10.82;;;21.90;99.90;;;;;;4994096;28;20120;-87
2023/06/20 07:07:10;;;;;;;12.82;11.52;;;21.70;99.90;;;;;;4999203;28;20029;-87
2023/06/20 07:09:36;;;;;;;11.70;10.50;;;21.80;99.90;;;;;;4984514;28;20056;-86
2023/06/20 07:12:06;;;;;;;13.15;10.93;;;22.00;99.90;;;;;;5006932;28;20033;-88
2023/06/20 07:14:33;;;;;;;11.02;9.93;;;22.60;99.90;;;;;;5009031;28;20030;-88
2023/06/20 07:17:00;;;;;;;13.25;11.88;;;23.00;99.90;;;;;;5012488;28;20028;-87
2023/06/20 07:19:25;;;;;;;11.80;10.30;;;23.70;99.90;;;;;;4989912;28;20025;-89
2023/06/20 07:21:51;;;;;;;10.93;9.68;;;23.90;99.90;;;;;;4990480;28;20071;-88
2023/06/20 07:24:17;;;;;;;12.60;9.90;;;24.00;99.90;;;;;;5005161;28;20470;-88
2023/06/20 07:26:43;;;;;;;12.77;9.30;;;24.30;99.90;;;;;;4989560;28;20033;-87
2023/06/20 07:29:09;;;;;;;10.80;9.70;;;24.70;99.90;;;;;;5005987;28;20045;-89
2023/06/20 07:31:34;;;;;;;10.23;8.98;;;25.20;99.90;;;;;;5025043;28;20026;-87
2023/06/20 07:34:00;;;;;;;9.60;8.70;;;25.00;99.90;;;;;;4986072;28;20374;-87
2023/06/20 07:36:26;;;;;;;9.07;8.23;;;24.70;99.90;;;;;;4996694;28;20025;-90
2023/06/20 07:38:52;;;;;;;10.05;8.50;;;25.00;99.90;;;;;;5006340;28;20080;-88
2023/06/20 07:41:17;;;;;;;9.40;8.45;;;25.10;99.90;;;;;;5008875;28;20030;-88
2023/06/20 07:43:43;;;;;;;9.15;8.25;;;25.10;99.90;;;;;;5011327;28;20028;-88
2023/06/20 07:46:09;;;;;;;9.32;8.25;;;24.70;99.90;;;;;;4979297;28;20033;-88
2023/06/20 07:48:35;;;;;;;7.75;7.05;;;24.50;99.90;;;;;;5011063;28;20029;-88
2023/06/20 07:51:01;;;;;;;8.35;7.45;;;24.40;99.90;;;;;;4999316;28;20121;-87
2023/06/20 07:53:27;;;;;;;8.43;7.60;;;24.10;99.90;;;;;;5002785;28;20128;-89
2023/06/20 07:55:56;;;;;;;7.70;7.00;;;24.10;99.90;;;;;;4995120;28;20567;-87
2023/06/20 07:58:21;;;;;;;7.68;6.95;;;24.10;99.90;;;;;;5014923;28;20033;-87
2023/06/20 08:00:47;;;;;;;7.00;6.40;;;24.10;99.90;;;;;;4985822;28;20022;-88
2023/06/20 08:03:13;;;;;;;8.48;7.47;;;24.20;99.90;;;;;;4994968;28;20038;-89
2023/06/20 08:05:39;;;;;;;8.55;7.15;;;24.50;99.90;;;;;;4989776;28;20064;-89
2023/06/20 08:08:05;;;;;;;7.68;6.97;;;24.80;99.90;;;;;;5004517;28;20107;-89
2023/06/20 08:10:31;;;;;;;9.63;8.35;;;25.10;99.90;;;;;;4994415;28;20038;-88
2023/06/20 08:12:57;;;;;;;8.77;7.43;;;25.30;99.90;;;;;;5015688;28;20018;-89
2023/06/20 08:15:23;;;;;;;9.57;7.53;;;25.60;99.90;;;;;;4990994;28;20079;-88
2023/06/20 08:17:48;;;;;;;8.05;6.50;;;25.80;99.90;;;;;;4999949;28;20029;-89
2023/06/20 08:20:14;;;;;;;10.55;7.53;;;26.10;99.90;;;;;;4992320;28;20030;-89
2023/06/20 08:22:40;;;;;;;9.32;6.57;;;26.40;99.10;;;;;;4993833;28;20044;-88
2023/06/20 08:25:07;;;;;;;7.43;6.65;;;26.20;97.60;;;;;;5010947;28;20021;-87
2023/06/20 08:27:33;;;;;;;6.38;5.78;;;26.20;97.90;;;;;;4998677;28;20033;-89
2023/06/20 08:29:58;;;;;;;10.27;6.00;;;26.50;98.50;;;;;;4986978;28;20140;-88
2023/06/20 08:32:24;;;;;;;7.18;6.47;;;26.70;96.30;;;;;;4992158;28;20030;-88
2023/06/20 08:34:50;;;;;;;8.15;6.03;;;27.10;96.50;;;;;;4996736;28;20022;-88
2023/06/20 08:37:35;;;;;;;6.95;6.35;;;27.70;96.60;;;;;;4994262;28;20099;-88
2023/06/20 08:40:03;;;;;;;6.93;6.32;;;28.30;93.90;;;;;;4968863;28;20121;-88
2023/06/20 08:42:30;;;;;;;6.80;6.20;;;28.40;92.20;;;;;;4987700;28;20033;-87
2023/06/20 08:44:57;;;;;;;6.30;5.70;;;28.20;91.20;;;;;;4990587;28;20108;-89
2023/06/20 08:47:23;;;;;;;5.80;5.30;;;28.50;92.70;;;;;;4997275;28;20055;-90
2023/06/20 08:49:49;;;;;;;4.35;4.05;;;28.80;93.40;;;;;;4992527;28;20601;-90
2023/06/20 08:52:22;;;;;;;6.18;5.57;;;29.20;87.40;;;;;;4977388;28;20145;-88
2023/06/20 08:54:48;;;;;;;6.25;5.55;;;29.10;91.00;;;;;;4983025;28;20026;-88
2023/06/20 08:57:14;;;;;;;5.55;5.05;;;29.00;85.00;;;;;;4990104;28;20068;-89
2023/06/20 08:59:40;;;;;;;5.85;5.35;;;28.70;86.90;;;;;;4992327;28;20058;-88
2023/06/20 09:02:07;;;;;;;5.15;4.65;;;28.60;86.00;;;;;;4977045;28;20045;-90
2023/06/20 09:04:33;;;;;;;4.88;4.15;;;28.60;89.00;;;;;;4987936;28;20072;-90
2023/06/20 09:07:01;;;;;;;6.00;4.20;;;28.70;88.00;;;;;;4984804;28;20046;-89
2023/06/20 09:09:26;;;;;;;4.32;3.95;;;28.70;88.60;;;;;;4987306;28;20449;-90
2023/06/20 09:11:58;;;;;;;4.40;4.00;;;28.70;86.10;;;;;;5010078;28;20118;-89
2023/06/20 09:14:28;;;;;;;5.38;4.82;;;28.70;87.50;;;;;;4975414;28;20065;-90
2023/06/20 09:16:55;;;;;;;4.70;4.30;;;28.60;82.30;;;;;;5000592;28;20046;-91
2023/06/20 09:19:21;;;;;;;6.93;4.60;;;28.40;82.20;;;;;;4981100;28;20026;-89
2023/06/20 09:21:47;;;;;;;4.53;4.13;;;28.50;87.50;;;;;;4986813;28;20030;-89
2023/06/20 09:24:20;;;;;;;5.10;4.60;;;28.30;79.40;;;;;;4990939;28;20026;-88
2023/06/20 09:26:47;;;;;;;4.10;3.70;;;27.80;79.80;;;;;;5003392;28;20113;-90
2023/06/20 09:29:16;;;;;;;3.67;3.38;;;27.70;81.90;;;;;;4990846;28;20022;-92
2023/06/20 09:31:49;;;;;;;3.92;3.63;;;27.70;84.10;;;;;;5004122;28;20026;-90
2023/06/20 09:34:19;;;;;;;6.38;4.28;;;27.70;81.90;;;;;;4994878;28;20484;-91
2023/06/20 09:36:46;;;;;;;4.72;3.70;;;27.80;86.10;;;;;;4991632;28;20038;-90
2023/06/20 09:39:20;;;;;;;3.60;3.30;;;27.90;81.40;;;;;;5010284;28;20438;-91
2023/06/20 09:41:46;;;;;;;4.13;3.83;;;27.70;80.80;;;;;;4994361;28;20055;-91
2023/06/20 09:44:13;;;;;;;4.13;3.72;;;27.80;81.50;;;;;;4994948;28;20056;-92
2023/06/20 09:46:40;;;;;;;4.07;3.67;;;27.90;82.90;;;;;;4994406;28;20321;-90
2023/06/20 09:49:06;;;;;;;4.88;3.38;;;28.00;79.40;;;;;;4995683;28;20120;-91
2023/06/20 09:51:43;;;;;;;5.00;3.47;;;28.00;81.40;;;;;;4996910;28;20437;-91
2023/06/20 09:54:13;;;;;;;3.20;3.00;;;28.10;81.20;;;;;;4996235;28;20027;-88
2023/06/20 09:57:06;;;;;;;3.25;2.95;;;28.20;84.50;;;;;;4977839;28;20026;-91
2023/06/20 09:59:38;;;;;;;4.32;3.00;;;28.30;80.10;;;;;;4994019;28;20033;-91
2023/06/20 10:02:08;;;;;;;3.55;3.20;;;28.40;82.00;;;;;;4977346;28;20034;-91
2023/06/20 10:04:42;;;;;;;3.92;3.30;;;28.40;84.10;;;;;;5010254;28;20113;-91
2023/06/20 10:07:13;;;;;;;4.13;3.20;;;28.50;79.50;;;;;;5009666;28;20165;-91
2023/06/20 10:09:42;;;;;;;7.97;3.63;;;28.50;77.60;;;;;;4981483;28;20033;-88
2023/06/20 10:12:10;;;;;;;4.25;3.25;;;28.60;73.70;;;;;;4998154;28;20065;-89
2023/06/20 10:14:36;;;;;;;3.17;2.92;;;28.50;77.10;;;;;;4965519;28;20506;-90
2023/06/20 10:17:06;;;;;;;4.03;2.90;;;28.60;77.80;;;;;;4993867;28;20387;-91
2023/06/20 10:19:56;;;;;;;5.32;2.92;;;28.70;75.70;;;;;;5013236;28;20037;-91
2023/06/20 10:22:33;;;;;;;3.03;2.72;;;28.70;76.10;;;;;;4997299;28;20438;-89
2023/06/20 10:25:12;;;;;;;3.85;3.08;;;28.80;73.90;;;;;;4980750;28;20034;-90
2023/06/20 10:27:41;;;;;;;3.88;3.00;;;28.80;79.20;;;;;;4990156;28;20443;-90
2023/06/20 10:30:10;;;;;;;5.28;3.38;;;28.90;76.00;;;;;;4969853;28;20487;-90
2023/06/20 10:32:58;;;;;;;4.13;3.40;;;28.90;75.20;;;;;;4986990;28;20029;-91
2023/06/20 10:35:27;;;;;;;4.55;3.10;;;28.70;71.70;;;;;;4995888;28;20083;-92
2023/06/20 10:38:07;;;;;;;3.08;2.78;;;28.70;74.90;;;;;;4999988;28;20029;-90
2023/06/20 10:40:35;;;;;;;3.22;2.92;;;28.70;75.30;;;;;;4997805;28;20091;-89
2023/06/20 10:43:08;;;;;;;5.38;3.33;;;28.70;70.40;;;;;;4984084;28;20495;-91
2023/06/20 10:45:35;;;;;;;3.80;3.08;;;28.60;71.50;;;;;;5001009;28;20109;-91
2023/06/20 10:48:03;;;;;;;4.68;3.08;;;28.40;72.00;;;;;;5015248;28;20030;-92
2023/06/20 10:50:32;;;;;;;3.42;2.63;;;28.50;76.30;;;;;;5013583;28;20231;-91
2023/06/20 10:53:00;;;;;;;4.45;2.90;;;28.70;75.50;;;;;;4981809;28;20085;-91
2023/06/20 10:55:27;;;;;;;4.30;3.13;;;28.80;72.50;;;;;;4992714;28;20024;-92
2023/06/20 11:00:34;;;;;;;8.63;2.63;;;28.90;67.00;;;;;;5027853;28;20041;-82
2023/06/20 11:02:59;;;;;;;4.43;2.90;;;29.00;72.00;;;;;;5017862;28;20046;-81
2023/06/20 11:05:33;;;;;;;4.85;2.90;;;29.20;66.00;;;;;;5003431;28;20042;-82
2023/06/20 11:08:01;;;;;;;9.65;3.47;;;29.30;70.10;;;;;;5026253;28;20064;-82
2023/06/20 11:10:30;;;;;;;7.35;3.42;;;29.40;71.90;;;;;;5029545;28;20042;-82
2023/06/20 11:12:58;;;;;;;4.43;2.97;;;29.50;72.20;;;;;;5029890;28;20093;-82
2023/06/20 11:15:28;;;;;;;4.70;3.10;;;29.40;69.00;;;;;;5020291;28;20034;-83
2023/06/20 11:17:56;;;;;;;5.45;3.10;;;29.50;69.00;;;;;;5031602;28;20083;-83
2023/06/20 11:20:24;;;;;;;4.57;3.10;;;29.60;71.00;;;;;;5021125;28;20022;-82
2023/06/20 11:22:53;;;;;;;4.90;3.25;;;29.70;70.30;;;;;;5016823;28;20038;-82
2023/06/20 11:25:29;;;;;;;4.28;3.05;;;29.80;71.10;;;;;;5028014;28;20485;-83
2023/06/20 11:28:09;;;;;;;5.65;3.10;;;29.80;66.40;;;;;;5044960;28;20029;-81
2023/06/20 11:30:37;;;;;;;5.18;3.25;;;29.90;65.00;;;;;;5026399;28;20044;-83
2023/06/20 11:33:12;;;;;;;3.45;3.10;;;30.00;67.70;;;;;;5023066;28;20112;-82
2023/06/20 11:35:42;;;;;;;4.90;3.65;;;30.10;64.80;;;;;;5024362;28;20036;-82
2023/06/20 11:38:13;;;;;;;5.32;3.45;;;30.10;61.70;;;;;;5016887;28;20743;-82
2023/06/20 11:40:41;;;;;;;7.90;3.80;;;30.10;65.30;;;;;;5012469;28;20038;-82
2023/06/20 11:43:07;;;;;;;6.97;3.90;;;30.10;58.60;;;;;;5011675;28;20041;-82
2023/06/20 11:45:34;;;;;;;6.35;3.85;;;30.20;59.30;;;;;;5025849;28;20749;-83
2023/06/20 11:48:13;;;;;;;5.13;3.50;;;30.20;60.90;;;;;;5024968;28;20033;-82
2023/06/20 11:53:26;;;;;;;7.50;3.85;;;30.30;62.10;;;;;;5037426;28;20476;-83
2023/06/20 11:55:53;;;;;;;4.85;3.92;;;30.40;60.70;;;;;;5034914;28;20038;-80
2023/06/20 11:58:19;;;;;;;4.45;3.42;;;30.40;64.60;;;;;;5031989;28;20033;-79
2023/06/20 12:01:04;;;;;;;4.07;3.67;;;30.60;63.90;;;;;;5024153;28;20571;-80
2023/06/20 12:03:34;;;;;;;5.03;3.65;;;30.70;63.10;;;;;;5014316;28;20045;-78
2023/06/20 12:05:59;;;;;;;5.38;4.57;;;30.90;63.60;;;;;;5011838;28;20059;-78
2023/06/20 12:08:31;;;;;;;14.45;4.55;;;31.00;61.40;;;;;;5013790;28;20519;-80
2023/06/20 12:10:59;;;;;;;6.18;3.97;;;31.10;61.90;;;;;;5019492;28;20065;-79
2023/06/20 12:13:26;;;;;;;6.18;3.70;;;31.10;57.00;;;;;;5018090;28;20494;-79
2023/06/20 12:15:52;;;;;;;6.20;4.05;;;31.20;62.10;;;;;;5008808;28;20105;-80
2023/06/20 12:18:18;;;;;;;7.20;4.07;;;31.40;61.20;;;;;;5021638;28;20393;-79
2023/06/20 12:20:45;;;;;;;5.05;3.60;;;31.50;57.10;;;;;;5012668;28;20030;-78
2023/06/20 12:23:11;;;;;;;5.40;4.38;;;31.60;58.70;;;;;;5013301;28;20083;-78
2023/06/20 12:25:37;;;;;;;6.63;3.90;;;31.70;57.20;;;;;;5018552;28;20026;-77
2023/06/20 12:28:03;;;;;;;5.30;4.45;;;31.60;54.20;;;;;;5012234;28;20428;-79
2023/06/20 12:30:30;;;;;;;4.30;3.70;;;31.60;56.90;;;;;;5011954;28;20033;-79
2023/06/20 12:32:58;;;;;;;5.93;4.60;;;31.50;55.90;;;;;;5012963;28;20089;-79
2023/06/20 12:35:26;;;;;;;6.88;4.45;;;31.60;55.70;;;;;;5014669;28;20026;-80
2023/06/20 12:37:52;;;;;;;6.43;4.20;;;31.70;57.70;;;;;;5011231;28;20509;-77
2023/06/20 12:40:36;;;;;;;8.50;4.80;;;31.80;53.20;;;;;;5011547;28;20516;-76
2023/06/20 12:43:02;;;;;;;5.40;3.80;;;32.00;54.20;;;;;;5010346;28;20026;-80
2023/06/20 12:45:28;;;;;;;5.85;4.15;;;32.20;56.10;;;;;;5009636;28;20113;-77
2023/06/20 12:47:54;;;;;;;6.10;4.38;;;32.30;53.50;;;;;;5013800;28;20452;-76
2023/06/20 12:50:20;;;;;;;5.90;4.60;;;32.50;53.30;;;;;;5012606;28;20026;-78
2023/06/20 12:52:46;;;;;;;8.25;4.65;;;32.60;56.20;;;;;;5010051;28;20036;-80
2023/06/20 12:55:12;;;;;;;6.30;4.15;;;32.70;54.00;;;;;;5012536;28;20091;-79